sensor_id;sensor_type;location;lat;lon;timestamp;P1;P2;P0
55754;PMS5003;41674;52.290;-1.474;2022-10-28T00:01:16;18;13;
55754;PMS5003;41674;52.290;-1.474;2022-10-28T00:03:45;11;10;
55754;PMS5003;41674;52.290;-1.474;2022-10-28T00:06:14;10;10;
55754;PMS5003;41674;52.290;-1.474;2022-10-28T00:08:43;11;10;
55754;PMS5003;41674;52.290;-1.474;2022-10-28T00:11:13;7;7;
55754;PMS5003;41674;52.290;-1.474;2022-10-28T00:13:42;11;9;
55754;PMS5003;41674;52.290;-1.474;2022-10-28T00:16:12;9;9;
55754;PMS5003;41674;52.290;-1.474;2022-10-28T00:18:41;9;8;
55754;PMS5003;41674;52.290;-1.474;2022-10-28T00:21:10;9;9;
55754;PMS5003;41674;52.290;-1.474;2022-10-28T00:23:40;12;9;
55754;PMS5003;41674;52.290;-1.474;2022-10-28T00:26:10;9;8;
55754;PMS5003;41674;52.290;-1.474;2022-10-28T00:28:39;12;9;
55754;PMS5003;41674;52.290;-1.474;2022-10-28T00:31:09;12;11;
55754;PMS5003;41674;52.290;-1.474;2022-10-28T00:33:38;10;10;
55754;PMS5003;41674;52.290;-1.474;2022-10-28T00:36:08;10;9;
55754;PMS5003;41674;52.290;-1.474;2022-10-28T00:38:37;11;10;
55754;PMS5003;41674;52.290;-1.474;2022-10-28T00:41:07;13;11;
55754;PMS5003;41674;52.290;-1.474;2022-10-28T00:43:37;9;9;
55754;PMS5003;41674;52.290;-1.474;2022-10-28T00:46:09;10;9;
55754;PMS5003;41674;52.290;-1.474;2022-10-28T00:48:35;10;9;
55754;PMS5003;41674;52.290;-1.474;2022-10-28T00:51:05;11;11;
55754;PMS5003;41674;52.290;-1.474;2022-10-28T00:53:35;9;9;
55754;PMS5003;41674;52.290;-1.474;2022-10-28T00:56:05;10;6;
55754;PMS5003;41674;52.290;-1.474;2022-10-28T00:58:34;9;9;
55754;PMS5003;41674;52.290;-1.474;2022-10-28T01:01:04;8;8;
55754;PMS5003;41674;52.290;-1.474;2022-10-28T01:03:33;10;9;
55754;PMS5003;41674;52.290;-1.474;2022-10-28T01:06:03;11;10;
55754;PMS5003;41674;52.290;-1.474;2022-10-28T01:08:32;9;8;
55754;PMS5003;41674;52.290;-1.474;2022-10-28T01:11:06;10;9;
55754;PMS5003;41674;52.290;-1.474;2022-10-28T01:13:35;10;9;
55754;PMS5003;41674;52.290;-1.474;2022-10-28T01:16:03;9;8;
55754;PMS5003;41674;52.290;-1.474;2022-10-28T01:18:31;12;10;
55754;PMS5003;41674;52.290;-1.474;2022-10-28T01:23:31;8;8;
55754;PMS5003;41674;52.290;-1.474;2022-10-28T01:31:00;11;10;
55754;PMS5003;41674;52.290;-1.474;2022-10-28T01:33:27;11;11;
55754;PMS5003;41674;52.290;-1.474;2022-10-28T01:35:57;10;9;
55754;PMS5003;41674;52.290;-1.474;2022-10-28T01:38:27;11;9;
55754;PMS5003;41674;52.290;-1.474;2022-10-28T01:40:57;12;10;
55754;PMS5003;41674;52.290;-1.474;2022-10-28T01:43:25;13;13;
55754;PMS5003;41674;52.290;-1.474;2022-10-28T01:45:56;13;11;
55754;PMS5003;41674;52.290;-1.474;2022-10-28T01:48:25;14;11;
55754;PMS5003;41674;52.290;-1.474;2022-10-28T01:50:54;11;9;
55754;PMS5003;41674;52.290;-1.474;2022-10-28T01:53:24;14;13;
55754;PMS5003;41674;52.290;-1.474;2022-10-28T01:55:52;11;11;
55754;PMS5003;41674;52.290;-1.474;2022-10-28T01:58:23;14;13;
55754;PMS5003;41674;52.290;-1.474;2022-10-28T02:00:51;11;11;
55754;PMS5003;41674;52.290;-1.474;2022-10-28T02:03:20;12;11;
55754;PMS5003;41674;52.290;-1.474;2022-10-28T02:05:50;10;9;
55754;PMS5003;41674;52.290;-1.474;2022-10-28T02:08:33;13;12;
55754;PMS5003;41674;52.290;-1.474;2022-10-28T02:10:52;11;10;
55754;PMS5003;41674;52.290;-1.474;2022-10-28T02:13:18;12;12;
55754;PMS5003;41674;52.290;-1.474;2022-10-28T02:15:49;16;14;
55754;PMS5003;41674;52.290;-1.474;2022-10-28T02:18:20;15;13;
55754;PMS5003;41674;52.290;-1.474;2022-10-28T02:20:48;16;14;
55754;PMS5003;41674;52.290;-1.474;2022-10-28T02:23:20;12;12;
55754;PMS5003;41674;52.290;-1.474;2022-10-28T02:25:48;14;13;
55754;PMS5003;41674;52.290;-1.474;2022-10-28T02:28:16;13;11;
55754;PMS5003;41674;52.290;-1.474;2022-10-28T02:30:45;13;13;
55754;PMS5003;41674;52.290;-1.474;2022-10-28T02:33:16;14;12;
55754;PMS5003;41674;52.290;-1.474;2022-10-28T02:35:44;18;16;
55754;PMS5003;41674;52.290;-1.474;2022-10-28T02:38:15;12;12;
55754;PMS5003;41674;52.290;-1.474;2022-10-28T02:40:43;16;15;
55754;PMS5003;41674;52.290;-1.474;2022-10-28T02:43:13;17;15;
55754;PMS5003;41674;52.290;-1.474;2022-10-28T02:45:43;17;14;
55754;PMS5003;41674;52.290;-1.474;2022-10-28T02:48:13;17;16;
55754;PMS5003;41674;52.290;-1.474;2022-10-28T02:50:42;15;11;
55754;PMS5003;41674;52.290;-1.474;2022-10-28T02:53:12;17;16;
55754;PMS5003;41674;52.290;-1.474;2022-10-28T02:55:41;15;15;
55754;PMS5003;41674;52.290;-1.474;2022-10-28T02:58:09;15;14;
55754;PMS5003;41674;52.290;-1.474;2022-10-28T03:00:42;18;14;
55754;PMS5003;41674;52.290;-1.474;2022-10-28T03:03:08;13;12;
55754;PMS5003;41674;52.290;-1.474;2022-10-28T03:05:37;15;15;
55754;PMS5003;41674;52.290;-1.474;2022-10-28T03:08:07;23;19;
55754;PMS5003;41674;52.290;-1.474;2022-10-28T03:10:36;13;13;
55754;PMS5003;41674;52.290;-1.474;2022-10-28T03:13:06;16;14;
55754;PMS5003;41674;52.290;-1.474;2022-10-28T03:15:36;19;16;
55754;PMS5003;41674;52.290;-1.474;2022-10-28T03:18:05;16;15;
55754;PMS5003;41674;52.290;-1.474;2022-10-28T03:20:34;17;14;
55754;PMS5003;41674;52.290;-1.474;2022-10-28T03:23:04;16;15;
55754;PMS5003;41674;52.290;-1.474;2022-10-28T03:25:33;15;15;
55754;PMS5003;41674;52.290;-1.474;2022-10-28T03:28:03;16;15;
55754;PMS5003;41674;52.290;-1.474;2022-10-28T03:30:32;20;18;
55754;PMS5003;41674;52.290;-1.474;2022-10-28T03:33:01;15;15;
55754;PMS5003;41674;52.290;-1.474;2022-10-28T03:35:31;18;15;
55754;PMS5003;41674;52.290;-1.474;2022-10-28T03:38:00;17;15;
55754;PMS5003;41674;52.290;-1.474;2022-10-28T03:40:29;15;13;
55754;PMS5003;41674;52.290;-1.474;2022-10-28T03:42:58;19;16;
55754;PMS5003;41674;52.290;-1.474;2022-10-28T03:45:28;16;15;
55754;PMS5003;41674;52.290;-1.474;2022-10-28T03:47:58;18;17;
55754;PMS5003;41674;52.290;-1.474;2022-10-28T03:50:28;14;13;
55754;PMS5003;41674;52.290;-1.474;2022-10-28T03:52:57;17;14;
55754;PMS5003;41674;52.290;-1.474;2022-10-28T03:55:26;15;14;
55754;PMS5003;41674;52.290;-1.474;2022-10-28T03:57:59;17;13;
55754;PMS5003;41674;52.290;-1.474;2022-10-28T04:00:25;18;13;
55754;PMS5003;41674;52.290;-1.474;2022-10-28T04:02:55;16;15;
55754;PMS5003;41674;52.290;-1.474;2022-10-28T04:05:25;13;12;
55754;PMS5003;41674;52.290;-1.474;2022-10-28T04:07:54;13;13;
55754;PMS5003;41674;52.290;-1.474;2022-10-28T04:10:24;16;11;
55754;PMS5003;41674;52.290;-1.474;2022-10-28T04:12:58;15;12;
55754;PMS5003;41674;52.290;-1.474;2022-10-28T04:15:23;15;14;
55754;PMS5003;41674;52.290;-1.474;2022-10-28T04:17:53;17;15;
55754;PMS5003;41674;52.290;-1.474;2022-10-28T04:20:22;14;13;
55754;PMS5003;41674;52.290;-1.474;2022-10-28T04:22:52;16;12;
55754;PMS5003;41674;52.290;-1.474;2022-10-28T04:25:21;14;14;
55754;PMS5003;41674;52.290;-1.474;2022-10-28T04:27:50;15;13;
55754;PMS5003;41674;52.290;-1.474;2022-10-28T04:30:20;14;12;
55754;PMS5003;41674;52.290;-1.474;2022-10-28T04:32:49;16;14;
55754;PMS5003;41674;52.290;-1.474;2022-10-28T04:35:19;16;12;
55754;PMS5003;41674;52.290;-1.474;2022-10-28T04:37:50;12;12;
55754;PMS5003;41674;52.290;-1.474;2022-10-28T04:40:18;12;11;
55754;PMS5003;41674;52.290;-1.474;2022-10-28T04:42:48;13;11;
55754;PMS5003;41674;52.290;-1.474;2022-10-28T04:45:18;14;10;
55754;PMS5003;41674;52.290;-1.474;2022-10-28T04:47:46;13;12;
55754;PMS5003;41674;52.290;-1.474;2022-10-28T04:50:16;12;9;
55754;PMS5003;41674;52.290;-1.474;2022-10-28T04:52:45;12;11;
55754;PMS5003;41674;52.290;-1.474;2022-10-28T04:55:15;18;14;
55754;PMS5003;41674;52.290;-1.474;2022-10-28T05:00:14;10;10;
55754;PMS5003;41674;52.290;-1.474;2022-10-28T05:02:43;12;10;
55754;PMS5003;41674;52.290;-1.474;2022-10-28T05:05:12;13;11;
55754;PMS5003;41674;52.290;-1.474;2022-10-28T05:07:42;11;10;
55754;PMS5003;41674;52.290;-1.474;2022-10-28T05:10:11;11;11;
55754;PMS5003;41674;52.290;-1.474;2022-10-28T05:12:41;11;11;
55754;PMS5003;41674;52.290;-1.474;2022-10-28T05:15:11;12;11;
55754;PMS5003;41674;52.290;-1.474;2022-10-28T05:17:41;10;10;
55754;PMS5003;41674;52.290;-1.474;2022-10-28T05:20:09;12;11;
55754;PMS5003;41674;52.290;-1.474;2022-10-28T05:22:43;12;12;
55754;PMS5003;41674;52.290;-1.474;2022-10-28T05:25:08;16;12;
55754;PMS5003;41674;52.290;-1.474;2022-10-28T05:27:38;12;11;
55754;PMS5003;41674;52.290;-1.474;2022-10-28T05:30:08;12;9;
55754;PMS5003;41674;52.290;-1.474;2022-10-28T05:32:37;13;10;
55754;PMS5003;41674;52.290;-1.474;2022-10-28T05:35:07;12;11;
55754;PMS5003;41674;52.290;-1.474;2022-10-28T05:37:36;12;10;
55754;PMS5003;41674;52.290;-1.474;2022-10-28T05:40:05;11;10;
55754;PMS5003;41674;52.290;-1.474;2022-10-28T05:42:39;14;12;
55754;PMS5003;41674;52.290;-1.474;2022-10-28T05:45:04;13;13;
55754;PMS5003;41674;52.290;-1.474;2022-10-28T05:47:33;12;10;
55754;PMS5003;41674;52.290;-1.474;2022-10-28T05:50:03;14;13;
55754;PMS5003;41674;52.290;-1.474;2022-10-28T05:52:32;13;12;
55754;PMS5003;41674;52.290;-1.474;2022-10-28T05:55:02;10;10;
55754;PMS5003;41674;52.290;-1.474;2022-10-28T05:57:32;11;11;
55754;PMS5003;41674;52.290;-1.474;2022-10-28T06:00:01;13;10;
55754;PMS5003;41674;52.290;-1.474;2022-10-28T06:02:30;12;9;
55754;PMS5003;41674;52.290;-1.474;2022-10-28T06:05:00;10;10;
55754;PMS5003;41674;52.290;-1.474;2022-10-28T06:07:29;10;9;
55754;PMS5003;41674;52.290;-1.474;2022-10-28T06:09:59;10;10;
55754;PMS5003;41674;52.290;-1.474;2022-10-28T06:12:28;10;9;
55754;PMS5003;41674;52.290;-1.474;2022-10-28T06:14:58;12;10;
55754;PMS5003;41674;52.290;-1.474;2022-10-28T06:17:27;12;10;
55754;PMS5003;41674;52.290;-1.474;2022-10-28T06:19:57;12;8;
55754;PMS5003;41674;52.290;-1.474;2022-10-28T06:22:26;11;11;
55754;PMS5003;41674;52.290;-1.474;2022-10-28T06:24:55;10;10;
55754;PMS5003;41674;52.290;-1.474;2022-10-28T06:27:25;10;9;
55754;PMS5003;41674;52.290;-1.474;2022-10-28T06:29:54;11;11;
55754;PMS5003;41674;52.290;-1.474;2022-10-28T06:32:24;8;8;
55754;PMS5003;41674;52.290;-1.474;2022-10-28T06:34:53;9;8;
55754;PMS5003;41674;52.290;-1.474;2022-10-28T06:37:23;6;6;
55754;PMS5003;41674;52.290;-1.474;2022-10-28T06:39:52;11;9;
55754;PMS5003;41674;52.290;-1.474;2022-10-28T06:42:22;8;7;
55754;PMS5003;41674;52.290;-1.474;2022-10-28T06:44:51;10;8;
55754;PMS5003;41674;52.290;-1.474;2022-10-28T06:47:21;11;9;
55754;PMS5003;41674;52.290;-1.474;2022-10-28T06:49:50;7;7;
55754;PMS5003;41674;52.290;-1.474;2022-10-28T06:52:20;7;7;
55754;PMS5003;41674;52.290;-1.474;2022-10-28T06:54:49;8;8;
55754;PMS5003;41674;52.290;-1.474;2022-10-28T06:57:19;8;7;
55754;PMS5003;41674;52.290;-1.474;2022-10-28T06:59:49;11;8;
55754;PMS5003;41674;52.290;-1.474;2022-10-28T07:02:18;9;7;
55754;PMS5003;41674;52.290;-1.474;2022-10-28T07:04:47;8;6;
55754;PMS5003;41674;52.290;-1.474;2022-10-28T07:07:17;10;8;
55754;PMS5003;41674;52.290;-1.474;2022-10-28T07:09:46;9;8;
55754;PMS5003;41674;52.290;-1.474;2022-10-28T07:12:17;11;11;
55754;PMS5003;41674;52.290;-1.474;2022-10-28T07:14:45;14;9;
55754;PMS5003;41674;52.290;-1.474;2022-10-28T07:17:14;8;8;
55754;PMS5003;41674;52.290;-1.474;2022-10-28T07:19:44;6;6;
55754;PMS5003;41674;52.290;-1.474;2022-10-28T07:22:13;10;9;
55754;PMS5003;41674;52.290;-1.474;2022-10-28T07:24:43;8;7;
55754;PMS5003;41674;52.290;-1.474;2022-10-28T07:27:13;9;9;
55754;PMS5003;41674;52.290;-1.474;2022-10-28T07:29:42;9;8;
55754;PMS5003;41674;52.290;-1.474;2022-10-28T07:32:11;10;8;
55754;PMS5003;41674;52.290;-1.474;2022-10-28T07:34:40;13;9;
55754;PMS5003;41674;52.290;-1.474;2022-10-28T07:37:10;10;8;
55754;PMS5003;41674;52.290;-1.474;2022-10-28T07:39:40;9;7;
55754;PMS5003;41674;52.290;-1.474;2022-10-28T07:42:09;12;9;
55754;PMS5003;41674;52.290;-1.474;2022-10-28T07:44:39;9;8;
55754;PMS5003;41674;52.290;-1.474;2022-10-28T07:47:08;7;7;
55754;PMS5003;41674;52.290;-1.474;2022-10-28T07:49:38;6;6;
55754;PMS5003;41674;52.290;-1.474;2022-10-28T07:52:08;6;6;
55754;PMS5003;41674;52.290;-1.474;2022-10-28T07:54:37;4;4;
55754;PMS5003;41674;52.290;-1.474;2022-10-28T07:57:06;4;4;
55754;PMS5003;41674;52.290;-1.474;2022-10-28T07:59:36;4;3;
55754;PMS5003;41674;52.290;-1.474;2022-10-28T08:02:05;3;3;
55754;PMS5003;41674;52.290;-1.474;2022-10-28T08:04:35;1;1;
55754;PMS5003;41674;52.290;-1.474;2022-10-28T08:07:05;4;4;
55754;PMS5003;41674;52.290;-1.474;2022-10-28T08:09:34;1;1;
55754;PMS5003;41674;52.290;-1.474;2022-10-28T08:12:04;2;2;
55754;PMS5003;41674;52.290;-1.474;2022-10-28T08:14:33;1;1;
55754;PMS5003;41674;52.290;-1.474;2022-10-28T08:17:03;2;2;
55754;PMS5003;41674;52.290;-1.474;2022-10-28T08:19:32;2;2;
55754;PMS5003;41674;52.290;-1.474;2022-10-28T08:22:02;2;1;
55754;PMS5003;41674;52.290;-1.474;2022-10-28T08:24:32;1;1;
55754;PMS5003;41674;52.290;-1.474;2022-10-28T08:27:01;1;1;
55754;PMS5003;41674;52.290;-1.474;2022-10-28T08:29:31;1;1;
55754;PMS5003;41674;52.290;-1.474;2022-10-28T08:32:00;0;0;
55754;PMS5003;41674;52.290;-1.474;2022-10-28T08:34:30;0;0;
55754;PMS5003;41674;52.290;-1.474;2022-10-28T08:36:59;0;0;
55754;PMS5003;41674;52.290;-1.474;2022-10-28T08:39:29;2;1;
55754;PMS5003;41674;52.290;-1.474;2022-10-28T08:42:02;1;1;
55754;PMS5003;41674;52.290;-1.474;2022-10-28T08:44:32;0;0;
55754;PMS5003;41674;52.290;-1.474;2022-10-28T08:47:01;3;1;
55754;PMS5003;41674;52.290;-1.474;2022-10-28T08:49:28;0;0;
55754;PMS5003;41674;52.290;-1.474;2022-10-28T08:51:57;0;0;
55754;PMS5003;41674;52.290;-1.474;2022-10-28T08:54:29;3;1;
55754;PMS5003;41674;52.290;-1.474;2022-10-28T08:56:56;1;1;
55754;PMS5003;41674;52.290;-1.474;2022-10-28T08:59:26;1;1;
55754;PMS5003;41674;52.290;-1.474;2022-10-28T09:01:55;3;2;
55754;PMS5003;41674;52.290;-1.474;2022-10-28T09:04:26;1;1;
55754;PMS5003;41674;52.290;-1.474;2022-10-28T09:06:54;1;1;
55754;PMS5003;41674;52.290;-1.474;2022-10-28T09:09:24;3;2;
55754;PMS5003;41674;52.290;-1.474;2022-10-28T09:11:56;0;0;
55754;PMS5003;41674;52.290;-1.474;2022-10-28T09:14:26;1;1;
55754;PMS5003;41674;52.290;-1.474;2022-10-28T09:16:54;1;1;
55754;PMS5003;41674;52.290;-1.474;2022-10-28T09:19:25;1;0;
55754;PMS5003;41674;52.290;-1.474;2022-10-28T09:21:52;1;1;
55754;PMS5003;41674;52.290;-1.474;2022-10-28T09:24:22;2;2;
55754;PMS5003;41674;52.290;-1.474;2022-10-28T09:26:51;3;3;
55754;PMS5003;41674;52.290;-1.474;2022-10-28T09:29:24;1;1;
55754;PMS5003;41674;52.290;-1.474;2022-10-28T09:31:51;1;1;
55754;PMS5003;41674;52.290;-1.474;2022-10-28T09:34:22;2;0;
55754;PMS5003;41674;52.290;-1.474;2022-10-28T09:36:50;1;1;
55754;PMS5003;41674;52.290;-1.474;2022-10-28T09:39:18;0;0;
55754;PMS5003;41674;52.290;-1.474;2022-10-28T09:41:48;1;1;
55754;PMS5003;41674;52.290;-1.474;2022-10-28T09:44:18;0;0;
55754;PMS5003;41674;52.290;-1.474;2022-10-28T09:46:47;1;1;
55754;PMS5003;41674;52.290;-1.474;2022-10-28T09:49:17;0;0;
55754;PMS5003;41674;52.290;-1.474;2022-10-28T09:51:47;0;0;
55754;PMS5003;41674;52.290;-1.474;2022-10-28T09:54:15;0;0;
55754;PMS5003;41674;52.290;-1.474;2022-10-28T09:56:45;1;1;
55754;PMS5003;41674;52.290;-1.474;2022-10-28T09:59:14;0;0;
55754;PMS5003;41674;52.290;-1.474;2022-10-28T10:01:44;1;1;
55754;PMS5003;41674;52.290;-1.474;2022-10-28T10:04:16;2;1;
55754;PMS5003;41674;52.290;-1.474;2022-10-28T10:06:43;1;1;
55754;PMS5003;41674;52.290;-1.474;2022-10-28T10:09:13;3;1;
55754;PMS5003;41674;52.290;-1.474;2022-10-28T10:11:43;1;0;
55754;PMS5003;41674;52.290;-1.474;2022-10-28T10:14:14;0;0;
55754;PMS5003;41674;52.290;-1.474;2022-10-28T10:16:42;6;5;
55754;PMS5003;41674;52.290;-1.474;2022-10-28T10:19:11;1;1;
55754;PMS5003;41674;52.290;-1.474;2022-10-28T10:21:42;2;1;
55754;PMS5003;41674;52.290;-1.474;2022-10-28T10:26:40;0;0;
55754;PMS5003;41674;52.290;-1.474;2022-10-28T10:29:09;1;1;
55754;PMS5003;41674;52.290;-1.474;2022-10-28T10:31:39;1;1;
55754;PMS5003;41674;52.290;-1.474;2022-10-28T10:34:13;1;1;
55754;PMS5003;41674;52.290;-1.474;2022-10-28T10:36:38;1;1;
55754;PMS5003;41674;52.290;-1.474;2022-10-28T10:41:38;1;0;
55754;PMS5003;41674;52.290;-1.474;2022-10-28T10:46:36;2;2;
55754;PMS5003;41674;52.290;-1.474;2022-10-28T10:49:10;1;1;
55754;PMS5003;41674;52.290;-1.474;2022-10-28T10:51:35;2;1;
55754;PMS5003;41674;52.290;-1.474;2022-10-28T10:54:05;3;1;
55754;PMS5003;41674;52.290;-1.474;2022-10-28T10:56:34;2;2;
55754;PMS5003;41674;52.290;-1.474;2022-10-28T10:59:04;1;1;
55754;PMS5003;41674;52.290;-1.474;2022-10-28T11:01:34;2;2;
55754;PMS5003;41674;52.290;-1.474;2022-10-28T11:04:03;1;1;
55754;PMS5003;41674;52.290;-1.474;2022-10-28T11:06:33;2;2;
55754;PMS5003;41674;52.290;-1.474;2022-10-28T11:09:02;2;1;
55754;PMS5003;41674;52.290;-1.474;2022-10-28T11:11:32;2;1;
55754;PMS5003;41674;52.290;-1.474;2022-10-28T11:14:02;2;2;
55754;PMS5003;41674;52.290;-1.474;2022-10-28T11:16:30;3;3;
55754;PMS5003;41674;52.290;-1.474;2022-10-28T11:19:00;5;2;
55754;PMS5003;41674;52.290;-1.474;2022-10-28T11:24:03;2;0;
55754;PMS5003;41674;52.290;-1.474;2022-10-28T11:26:30;3;2;
55754;PMS5003;41674;52.290;-1.474;2022-10-28T11:29:02;1;1;
55754;PMS5003;41674;52.290;-1.474;2022-10-28T11:31:31;0;0;
55754;PMS5003;41674;52.290;-1.474;2022-10-28T11:34:01;1;1;
55754;PMS5003;41674;52.290;-1.474;2022-10-28T11:36:27;1;1;
55754;PMS5003;41674;52.290;-1.474;2022-10-28T11:39:00;3;2;
55754;PMS5003;41674;52.290;-1.474;2022-10-28T11:41:29;2;1;
55754;PMS5003;41674;52.290;-1.474;2022-10-28T11:43:56;1;1;
55754;PMS5003;41674;52.290;-1.474;2022-10-28T11:46:34;1;1;
55754;PMS5003;41674;52.290;-1.474;2022-10-28T11:48:59;1;0;
55754;PMS5003;41674;52.290;-1.474;2022-10-28T11:51:27;2;2;
55754;PMS5003;41674;52.290;-1.474;2022-10-28T11:56:26;0;0;
55754;PMS5003;41674;52.290;-1.474;2022-10-28T11:58:55;1;1;
55754;PMS5003;41674;52.290;-1.474;2022-10-28T12:01:26;0;0;
55754;PMS5003;41674;52.290;-1.474;2022-10-28T12:06:23;1;1;
55754;PMS5003;41674;52.290;-1.474;2022-10-28T12:08:55;0;0;
55754;PMS5003;41674;52.290;-1.474;2022-10-28T12:11:24;1;1;
55754;PMS5003;41674;52.290;-1.474;2022-10-28T12:13:52;0;0;
55754;PMS5003;41674;52.290;-1.474;2022-10-28T12:16:20;0;0;
55754;PMS5003;41674;52.290;-1.474;2022-10-28T12:18:50;1;1;
55754;PMS5003;41674;52.290;-1.474;2022-10-28T12:21:20;2;1;
55754;PMS5003;41674;52.290;-1.474;2022-10-28T12:23:48;0;0;
55754;PMS5003;41674;52.290;-1.474;2022-10-28T12:26:17;0;0;
55754;PMS5003;41674;52.290;-1.474;2022-10-28T12:28:48;0;0;
55754;PMS5003;41674;52.290;-1.474;2022-10-28T12:31:18;1;1;
55754;PMS5003;41674;52.290;-1.474;2022-10-28T12:33:47;0;0;
55754;PMS5003;41674;52.290;-1.474;2022-10-28T12:36:18;1;1;
55754;PMS5003;41674;52.290;-1.474;2022-10-28T12:38:47;0;0;
55754;PMS5003;41674;52.290;-1.474;2022-10-28T12:41:16;0;0;
55754;PMS5003;41674;52.290;-1.474;2022-10-28T12:43:44;0;0;
55754;PMS5003;41674;52.290;-1.474;2022-10-28T12:46:15;0;0;
55754;PMS5003;41674;52.290;-1.474;2022-10-28T12:48:43;0;0;
55754;PMS5003;41674;52.290;-1.474;2022-10-28T12:53:43;2;1;
55754;PMS5003;41674;52.290;-1.474;2022-10-28T12:56:12;0;0;
55754;PMS5003;41674;52.290;-1.474;2022-10-28T12:58:48;0;0;
55754;PMS5003;41674;52.290;-1.474;2022-10-28T13:01:12;2;1;
55754;PMS5003;41674;52.290;-1.474;2022-10-28T13:03:40;0;0;
55754;PMS5003;41674;52.290;-1.474;2022-10-28T13:13:41;1;1;
55754;PMS5003;41674;52.290;-1.474;2022-10-28T13:16:09;0;0;
55754;PMS5003;41674;52.290;-1.474;2022-10-28T13:21:09;1;1;
55754;PMS5003;41674;52.290;-1.474;2022-10-28T13:23:37;0;0;
55754;PMS5003;41674;52.290;-1.474;2022-10-28T13:26:09;2;2;
55754;PMS5003;41674;52.290;-1.474;2022-10-28T13:28:42;0;0;
55754;PMS5003;41674;52.290;-1.474;2022-10-28T13:31:06;1;1;
55754;PMS5003;41674;52.290;-1.474;2022-10-28T13:33:35;1;1;
55754;PMS5003;41674;52.290;-1.474;2022-10-28T13:36:08;0;0;
55754;PMS5003;41674;52.290;-1.474;2022-10-28T13:38:33;4;0;
55754;PMS5003;41674;52.290;-1.474;2022-10-28T13:46:02;3;1;
55754;PMS5003;41674;52.290;-1.474;2022-10-28T13:53:36;4;1;
55754;PMS5003;41674;52.290;-1.474;2022-10-28T13:56:00;1;1;
55754;PMS5003;41674;52.290;-1.474;2022-10-28T13:58:30;0;0;
55754;PMS5003;41674;52.290;-1.474;2022-10-28T14:03:34;2;2;
55754;PMS5003;41674;52.290;-1.474;2022-10-28T14:05:58;3;2;
55754;PMS5003;41674;52.290;-1.474;2022-10-28T14:08:28;4;2;
55754;PMS5003;41674;52.290;-1.474;2022-10-28T14:10:59;2;2;
55754;PMS5003;41674;52.290;-1.474;2022-10-28T14:13:27;2;2;
55754;PMS5003;41674;52.290;-1.474;2022-10-28T14:18:26;3;3;
55754;PMS5003;41674;52.290;-1.474;2022-10-28T14:20:56;2;2;
55754;PMS5003;41674;52.290;-1.474;2022-10-28T14:25:58;3;3;
55754;PMS5003;41674;52.290;-1.474;2022-10-28T14:33:23;4;4;
55754;PMS5003;41674;52.290;-1.474;2022-10-28T14:35:57;4;3;
55754;PMS5003;41674;52.290;-1.474;2022-10-28T14:40:53;2;2;
55754;PMS5003;41674;52.290;-1.474;2022-10-28T14:45:53;4;3;
55754;PMS5003;41674;52.290;-1.474;2022-10-28T14:48:24;3;2;
55754;PMS5003;41674;52.290;-1.474;2022-10-28T14:50:50;4;3;
55754;PMS5003;41674;52.290;-1.474;2022-10-28T14:53:21;0;0;
55754;PMS5003;41674;52.290;-1.474;2022-10-28T14:55:50;2;2;
55754;PMS5003;41674;52.290;-1.474;2022-10-28T14:58:19;3;3;
55754;PMS5003;41674;52.290;-1.474;2022-10-28T15:00:51;4;3;
55754;PMS5003;41674;52.290;-1.474;2022-10-28T15:03:18;3;3;
55754;PMS5003;41674;52.290;-1.474;2022-10-28T15:05:47;3;3;
55754;PMS5003;41674;52.290;-1.474;2022-10-28T15:08:17;3;2;
55754;PMS5003;41674;52.290;-1.474;2022-10-28T15:10:46;2;2;
55754;PMS5003;41674;52.290;-1.474;2022-10-28T15:13:15;1;1;
55754;PMS5003;41674;52.290;-1.474;2022-10-28T15:18:20;3;2;
55754;PMS5003;41674;52.290;-1.474;2022-10-28T15:20:44;2;2;
55754;PMS5003;41674;52.290;-1.474;2022-10-28T15:23:15;2;2;
55754;PMS5003;41674;52.290;-1.474;2022-10-28T15:25:43;2;2;
55754;PMS5003;41674;52.290;-1.474;2022-10-28T15:28:12;3;1;
55754;PMS5003;41674;52.290;-1.474;2022-10-28T15:30:42;3;1;
55754;PMS5003;41674;52.290;-1.474;2022-10-28T15:33:18;2;2;
55754;PMS5003;41674;52.290;-1.474;2022-10-28T15:35:41;1;0;
55754;PMS5003;41674;52.290;-1.474;2022-10-28T15:40:40;1;1;
55754;PMS5003;41674;52.290;-1.474;2022-10-28T15:43:20;4;2;
55754;PMS5003;41674;52.290;-1.474;2022-10-28T15:45:39;1;1;
55754;PMS5003;41674;52.290;-1.474;2022-10-28T15:48:09;1;1;
55754;PMS5003;41674;52.290;-1.474;2022-10-28T15:50:38;1;1;
55754;PMS5003;41674;52.290;-1.474;2022-10-28T15:55:37;1;1;
55754;PMS5003;41674;52.290;-1.474;2022-10-28T16:00:49;2;2;
55754;PMS5003;41674;52.290;-1.474;2022-10-28T16:03:10;0;0;
55754;PMS5003;41674;52.290;-1.474;2022-10-28T16:08:06;3;1;
55754;PMS5003;41674;52.290;-1.474;2022-10-28T16:10:35;1;1;
55754;PMS5003;41674;52.290;-1.474;2022-10-28T16:13:04;2;1;
55754;PMS5003;41674;52.290;-1.474;2022-10-28T16:15:34;2;2;
55754;PMS5003;41674;52.290;-1.474;2022-10-28T16:18:05;2;2;
55754;PMS5003;41674;52.290;-1.474;2022-10-28T16:20:33;2;1;
55754;PMS5003;41674;52.290;-1.474;2022-10-28T16:23:11;0;0;
55754;PMS5003;41674;52.290;-1.474;2022-10-28T16:25:31;1;1;
55754;PMS5003;41674;52.290;-1.474;2022-10-28T16:28:01;2;2;
55754;PMS5003;41674;52.290;-1.474;2022-10-28T16:30:31;3;3;
55754;PMS5003;41674;52.290;-1.474;2022-10-28T16:33:00;3;1;
55754;PMS5003;41674;52.290;-1.474;2022-10-28T16:35:30;2;2;
55754;PMS5003;41674;52.290;-1.474;2022-10-28T16:37:59;1;1;
55754;PMS5003;41674;52.290;-1.474;2022-10-28T16:40:29;4;4;
55754;PMS5003;41674;52.290;-1.474;2022-10-28T16:42:58;1;1;
55754;PMS5003;41674;52.290;-1.474;2022-10-28T16:45:28;3;3;
55754;PMS5003;41674;52.290;-1.474;2022-10-28T16:47:57;4;2;
55754;PMS5003;41674;52.290;-1.474;2022-10-28T16:50:27;3;2;
55754;PMS5003;41674;52.290;-1.474;2022-10-28T16:52:57;3;3;
55754;PMS5003;41674;52.290;-1.474;2022-10-28T16:55:27;5;2;
55754;PMS5003;41674;52.290;-1.474;2022-10-28T16:57:55;12;11;
55754;PMS5003;41674;52.290;-1.474;2022-10-28T17:00:25;17;10;
55754;PMS5003;41674;52.290;-1.474;2022-10-28T17:02:55;9;7;
55754;PMS5003;41674;52.290;-1.474;2022-10-28T17:05:25;6;5;
55754;PMS5003;41674;52.290;-1.474;2022-10-28T17:07:54;4;4;
55754;PMS5003;41674;52.290;-1.474;2022-10-28T17:10:24;6;3;
55754;PMS5003;41674;52.290;-1.474;2022-10-28T17:12:53;4;3;
55754;PMS5003;41674;52.290;-1.474;2022-10-28T17:15:23;3;1;
55754;PMS5003;41674;52.290;-1.474;2022-10-28T17:17:52;4;3;
55754;PMS5003;41674;52.290;-1.474;2022-10-28T17:20:27;3;1;
55754;PMS5003;41674;52.290;-1.474;2022-10-28T17:22:52;4;1;
55754;PMS5003;41674;52.290;-1.474;2022-10-28T17:25:26;4;3;
55754;PMS5003;41674;52.290;-1.474;2022-10-28T17:27:51;2;2;
55754;PMS5003;41674;52.290;-1.474;2022-10-28T17:30:20;2;2;
55754;PMS5003;41674;52.290;-1.474;2022-10-28T17:32:50;2;1;
55754;PMS5003;41674;52.290;-1.474;2022-10-28T17:35:19;3;3;
55754;PMS5003;41674;52.290;-1.474;2022-10-28T17:37:49;2;2;
55754;PMS5003;41674;52.290;-1.474;2022-10-28T17:40:18;4;3;
55754;PMS5003;41674;52.290;-1.474;2022-10-28T17:42:48;4;3;
55754;PMS5003;41674;52.290;-1.474;2022-10-28T17:45:18;1;1;
55754;PMS5003;41674;52.290;-1.474;2022-10-28T17:47:52;1;1;
55754;PMS5003;41674;52.290;-1.474;2022-10-28T17:50:16;5;4;
55754;PMS5003;41674;52.290;-1.474;2022-10-28T17:52:46;2;2;
55754;PMS5003;41674;52.290;-1.474;2022-10-28T17:55:16;12;10;